Etusivu
METAR-TAF:

METAR-TAF

Lentoasemat :

Agadir, Marokko

Leveyspiiri: 30-20N, Pituuspiiri: 009-24W, korkeus merenpinnasta: 74 m

Tämänhetkinen sää

Tämä raportti tehtiin 17 minuuttia sitten, kello 04.00 UTC
Tuuli 5 kn idästä/kaakosta, vaihdellen idän ja etelän/kaakon välillä
Lämpötila 12°C
Kosteus 71%
Ilmanpaine 1017 hPa
Näkyvyys 10 km tai enemmän
ei pilviä alle 1500 m:ssä eikä cumulonimbus-pilviä

METAR: GMAD 270400Z 11005KT 080V160 CAVOK 12/07 Q1017 NOSIG

Aika: 05:17 (04:17 UTC)

Sääennuste

Tämä raportti tehtiin 5 tuntia ja 17 minuuttia sitten, kello 23.00 UTC
Ennuste voimassa 27. päivästä klo 00 UTC - 28. päivään klo 06 UTC
Tuuli 5 kn idästä/kaakosta
Näkyvyys 10 km tai enemmän
ei pilviä alle 1500 m:ssä eikä cumulonimbus-pilviä
Tulossa
27. päivästä klo 12 UTC - 27. päivään klo 14 UTC
Tuuli 12 kn lännestä
Tulossa
27. päivästä klo 19 UTC - 27. päivään klo 22 UTC
Tuuli 5 kn idästä

TAF: GMAD 262300Z 2700/2806 12005KT CAVOK BECMG 2712/2714 28012KT BECMG 2719/2722 10005KT

Säähavainnot ja -ennusteet yli 4000 lentoasemalta (METAR- ja TAF-raportit).

Käytössä olevat sääasemat on merkitty karttaan keltaisilla ja punaisilla pisteillä.

Aseta hiiri pisteen päälle nähdäksesi sääaseman nimen.

Klikkaa sitten nähdäksesi säähavainnot ja -ennusteet.

Kartan vaihtaminen: klikkaa mustalla rastilla varustettuja vihreitä pisteitä, niin voit zoomata sisään; viivalla varustettua vihreää pistettä, niin voit zoomata ulos tai vihreitä nuolia, niin pääset viereisille kartoille.


METAR-TAF: